HJD weather

Interpol México Heliport
Miguel Hidalgo, Ciudad de México, Mexico

Public forecast

Using degrees Celsius for public forecast. Weather courtesy of forecast.io.

Closest aviation weather report (METAR) to Interpol México Heliport

Closest report is Licenciado Benito Juarez International Airport, 8.1 nm (15.0 km) E. Retrieved 2019/11/17 18:46 UTC (58 minutes ago):

MMMX 171846Z 00000KT 7SM FEW020 SCT230 22/05 A3028 NOSIG RMK 8/109 HZY AC MDT CU W

Closest aviation forecast (TAF) to Interpol México Heliport

Closest forecast is Licenciado Benito Juarez International Airport, 8.1 nm (15.0 km) E. Retrieved 2019/11/17 18:06 UTC (2 hours ago):

TAF COR TAF COR MMMX 172104Z 1718/1824 06005KT P6SM SCT020 BKN080 BKN230 TX22/1721Z TN10/1812Z TEMPO 1722/1802 BKN020 FM180200 35005KT P6SM SCT030 BKN250 TEMPO 1813/1817 4SM HZ FM181700 34010KT P6SM SCT020 BKN250 TEMPO 1820/1824 BKN020